Time;durP1;ratioP1;P1;durP2;ratioP2;P2;SDS_P1;SDS_P2;PMS_P1;PMS_P2;Temp;Humidity;BMP_temperature;BMP_pressure;BME280_temperature;BME280_humidity;BME280_pressure;Samples;Min_cycle;Max_cycle;Signal;HPM_P1;HPM_P2
2022/01/08 00:02:09;;;;;;;29.53;27.70;;;4.50;99.90;;;;;;5025803;28;20186;-80
2022/01/08 00:04:35;;;;;;;30.07;27.97;;;4.50;99.90;;;;;;5017598;28;20199;-78
2022/01/08 00:07:00;;;;;;;28.73;26.17;;;4.50;99.90;;;;;;5018383;28;20586;-77
2022/01/08 00:09:26;;;;;;;27.97;25.87;;;4.50;99.90;;;;;;5000621;28;20592;-76
2022/01/08 00:11:51;;;;;;;26.87;25.07;;;4.60;99.90;;;;;;5014825;28;20238;-79
2022/01/08 00:14:21;;;;;;;26.93;25.10;;;4.60;99.90;;;;;;5023562;28;20211;-78
2022/01/08 00:16:47;;;;;;;26.80;24.47;;;4.60;99.90;;;;;;4999600;28;20217;-78
2022/01/08 00:19:13;;;;;;;26.83;24.97;;;4.60;99.90;;;;;;4997582;28;20188;-78
2022/01/08 00:21:38;;;;;;;24.90;23.30;;;4.60;99.90;;;;;;5015947;28;20201;-77
2022/01/08 00:24:04;;;;;;;26.20;24.37;;;4.50;99.90;;;;;;5007562;28;20247;-77
2022/01/08 00:26:30;;;;;;;25.53;23.30;;;4.50;99.90;;;;;;4997966;28;20191;-79
2022/01/08 00:28:56;;;;;;;24.63;22.93;;;4.50;99.90;;;;;;4998323;28;20195;-77
2022/01/08 00:31:21;;;;;;;24.97;23.07;;;4.50;99.90;;;;;;5007874;28;20212;-79
2022/01/08 00:33:47;;;;;;;24.63;22.83;;;4.50;99.90;;;;;;5008098;28;20306;-79
2022/01/08 00:36:13;;;;;;;25.03;22.83;;;4.50;99.90;;;;;;5015014;28;20191;-78
2022/01/08 00:38:38;;;;;;;23.40;21.70;;;4.50;99.90;;;;;;5016543;28;20261;-77
2022/01/08 00:41:04;;;;;;;24.57;22.43;;;4.60;99.90;;;;;;5025648;28;20190;-77
2022/01/08 00:43:30;;;;;;;21.50;19.90;;;4.60;99.90;;;;;;5013025;28;20198;-78
2022/01/08 00:45:55;;;;;;;22.17;20.53;;;4.60;99.90;;;;;;5014485;28;20557;-79
2022/01/08 00:48:21;;;;;;;21.90;20.30;;;4.50;99.90;;;;;;5013322;28;20346;-79
2022/01/08 00:50:48;;;;;;;22.37;20.70;;;4.60;99.90;;;;;;5014654;28;20610;-78
2022/01/08 00:53:13;;;;;;;22.20;20.40;;;4.60;99.90;;;;;;5014405;28;20994;-77
2022/01/08 00:55:39;;;;;;;21.07;19.83;;;4.50;99.90;;;;;;4995404;28;20206;-78
2022/01/08 00:58:05;;;;;;;22.70;20.63;;;4.50;99.90;;;;;;5006921;28;20239;-77
2022/01/08 01:00:31;;;;;;;21.60;19.77;;;4.60;99.90;;;;;;5024116;28;20194;-78
2022/01/08 01:02:56;;;;;;;20.83;19.33;;;4.60;99.90;;;;;;5016052;28;20195;-78
2022/01/08 01:05:23;;;;;;;20.80;19.37;;;4.70;99.90;;;;;;5000998;28;20332;-78
2022/01/08 01:07:49;;;;;;;21.20;19.57;;;4.70;99.90;;;;;;5017131;28;20238;-78
2022/01/08 01:10:17;;;;;;;22.30;20.13;;;4.70;99.90;;;;;;5000035;28;20191;-77
2022/01/08 01:12:43;;;;;;;20.27;18.80;;;4.70;99.90;;;;;;5015470;28;20223;-78
2022/01/08 01:15:11;;;;;;;21.17;19.43;;;4.70;99.90;;;;;;5015752;28;20198;-77
2022/01/08 01:17:37;;;;;;;19.97;18.70;;;4.60;99.90;;;;;;5014842;28;20249;-77
2022/01/08 01:20:03;;;;;;;20.57;18.87;;;4.60;99.90;;;;;;5017926;28;20239;-78
2022/01/08 01:22:40;;;;;;;21.63;20.03;;;4.60;99.90;;;;;;4998950;28;20307;-77
2022/01/08 01:25:07;;;;;;;22.10;20.50;;;4.60;99.90;;;;;;5012711;28;20192;-78
2022/01/08 01:27:59;;;;;;;22.27;20.47;;;4.60;99.90;;;;;;5001423;28;20199;-78
2022/01/08 01:41:38;;;;;;;23.83;22.03;;;4.50;99.90;;;;;;5019944;28;20213;-78
2022/01/08 01:49:15;;;;;;;24.33;22.10;;;4.50;99.90;;;;;;5022009;28;20780;-76
2022/01/08 01:51:40;;;;;;;24.30;22.23;;;4.50;99.90;;;;;;5018356;28;20686;-78
2022/01/08 01:54:06;;;;;;;22.70;20.73;;;4.50;99.90;;;;;;5019727;28;20226;-78
2022/01/08 01:56:32;;;;;;;22.70;21.20;;;4.50;99.90;;;;;;5003755;28;20191;-78
2022/01/08 01:58:58;;;;;;;22.60;20.77;;;4.50;99.90;;;;;;5010871;28;20215;-79
2022/01/08 02:01:23;;;;;;;20.73;19.30;;;4.60;99.90;;;;;;4994987;28;20538;-80
2022/01/08 02:03:49;;;;;;;22.63;20.80;;;4.60;99.90;;;;;;5018356;28;20643;-79
2022/01/08 02:06:15;;;;;;;22.17;20.43;;;4.60;99.90;;;;;;5018891;28;20239;-80
2022/01/08 02:08:42;;;;;;;22.30;20.30;;;4.70;99.90;;;;;;5003562;28;20620;-79
2022/01/08 02:11:08;;;;;;;21.70;19.97;;;4.70;99.90;;;;;;5017391;28;20823;-79
2022/01/08 02:13:35;;;;;;;21.37;19.50;;;4.70;99.90;;;;;;5017623;28;20307;-80
2022/01/08 02:16:01;;;;;;;20.77;19.53;;;4.80;99.90;;;;;;5021308;28;20234;-78
2022/01/08 02:18:28;;;;;;;20.57;18.87;;;4.90;99.90;;;;;;5024580;28;20249;-80
2022/01/08 02:20:56;;;;;;;20.83;19.07;;;4.90;99.90;;;;;;5019344;28;20650;-80
2022/01/08 02:23:22;;;;;;;20.97;19.17;;;4.90;99.90;;;;;;5017177;28;20627;-80
2022/01/08 02:25:51;;;;;;;20.07;18.63;;;4.90;99.90;;;;;;5006183;28;20296;-79
2022/01/08 02:28:17;;;;;;;20.43;18.83;;;4.80;99.90;;;;;;5019175;28;20211;-80
2022/01/08 02:30:44;;;;;;;20.90;19.00;;;4.80;99.90;;;;;;5020960;28;20250;-80
2022/01/08 02:33:10;;;;;;;20.13;18.57;;;4.70;99.90;;;;;;5017031;28;20309;-79
2022/01/08 02:35:36;;;;;;;20.63;19.10;;;4.70;99.90;;;;;;5001571;28;20665;-80
2022/01/08 02:38:01;;;;;;;21.13;19.33;;;4.70;99.90;;;;;;5012706;28;20187;-79
2022/01/08 02:40:27;;;;;;;21.50;19.83;;;4.70;99.90;;;;;;5009716;28;20206;-80
2022/01/08 02:43:02;;;;;;;21.50;19.63;;;4.60;99.90;;;;;;5023631;28;20613;-79
2022/01/08 02:45:29;;;;;;;21.43;19.83;;;4.70;99.90;;;;;;5015003;28;20182;-78
2022/01/08 02:47:56;;;;;;;20.67;19.23;;;4.70;99.90;;;;;;5032640;28;20256;-78
2022/01/08 02:50:23;;;;;;;20.30;19.00;;;4.80;99.90;;;;;;5016230;28;20660;-80
2022/01/08 02:52:49;;;;;;;20.43;18.50;;;4.80;99.90;;;;;;5015461;28;20246;-79
2022/01/08 02:55:20;;;;;;;20.97;19.53;;;4.80;99.90;;;;;;5009111;28;20244;-79
2022/01/08 02:57:46;;;;;;;20.20;18.43;;;4.90;99.90;;;;;;5017603;28;22611;-79
2022/01/08 03:00:15;;;;;;;20.27;19.00;;;4.90;99.90;;;;;;5014192;28;20603;-78
2022/01/08 03:02:42;;;;;;;21.73;18.50;;;4.90;99.90;;;;;;5015055;28;20200;-79
2022/01/08 03:05:11;;;;;;;20.27;18.43;;;4.90;99.90;;;;;;5017923;28;20211;-79
2022/01/08 03:07:41;;;;;;;22.27;20.20;;;4.90;99.90;;;;;;5014698;28;20201;-80
2022/01/08 03:10:08;;;;;;;22.67;20.80;;;4.90;99.90;;;;;;5016773;28;20198;-80
2022/01/08 03:12:38;;;;;;;23.70;22.40;;;4.90;99.90;;;;;;5015954;28;21748;-78
2022/01/08 03:15:05;;;;;;;25.37;24.00;;;4.80;99.90;;;;;;5016029;28;20286;-79
2022/01/08 03:17:31;;;;;;;26.80;25.20;;;4.60;99.90;;;;;;5015497;28;20226;-78
2022/01/08 03:20:03;;;;;;;29.40;27.80;;;4.60;99.90;;;;;;5014050;28;20274;-80
2022/01/08 03:22:29;;;;;;;29.40;27.70;;;4.50;99.90;;;;;;5006559;28;20646;-79
2022/01/08 03:24:55;;;;;;;27.93;26.47;;;4.50;99.90;;;;;;5006514;28;20183;-79
2022/01/08 03:27:21;;;;;;;28.80;27.30;;;4.50;99.90;;;;;;5015892;28;20648;-79
2022/01/08 03:29:46;;;;;;;28.67;27.17;;;4.40;99.90;;;;;;5014560;28;20214;-78
2022/01/08 03:32:12;;;;;;;31.10;29.20;;;4.40;99.90;;;;;;5008112;28;20214;-79
2022/01/08 03:34:38;;;;;;;31.70;29.43;;;4.40;99.90;;;;;;4992941;28;20696;-79
2022/01/08 03:37:04;;;;;;;30.73;28.50;;;4.40;99.90;;;;;;5015289;28;20245;-79
2022/01/08 03:39:30;;;;;;;31.60;29.70;;;4.50;99.90;;;;;;4999200;28;20234;-80
2022/01/08 03:41:55;;;;;;;31.90;29.43;;;4.40;99.90;;;;;;5016340;28;20207;-79
2022/01/08 03:44:22;;;;;;;32.00;30.10;;;4.40;99.90;;;;;;5011459;28;20183;-79
2022/01/08 03:46:47;;;;;;;33.10;30.30;;;4.40;99.90;;;;;;5015115;28;20219;-80
2022/01/08 03:49:24;;;;;;;33.13;30.87;;;4.40;99.90;;;;;;5014118;28;20192;-78
2022/01/08 03:51:54;;;;;;;33.30;31.10;;;4.40;99.90;;;;;;5014262;28;20191;-79
2022/01/08 03:54:20;;;;;;;34.53;32.23;;;4.40;99.90;;;;;;5014577;28;20787;-79
2022/01/08 03:56:47;;;;;;;33.40;31.13;;;4.40;99.90;;;;;;5024395;28;20207;-79
2022/01/08 03:59:12;;;;;;;33.17;31.00;;;4.40;99.90;;;;;;5013111;28;20558;-79
2022/01/08 04:01:38;;;;;;;33.77;31.00;;;4.40;99.90;;;;;;5014593;28;20241;-80
2022/01/08 04:04:04;;;;;;;33.23;31.17;;;4.40;99.90;;;;;;5013454;28;20654;-80
2022/01/08 04:06:29;;;;;;;32.73;30.43;;;4.40;99.90;;;;;;5023435;28;20214;-79
2022/01/08 04:08:58;;;;;;;32.97;30.40;;;4.40;99.90;;;;;;5015469;28;20256;-80
2022/01/08 04:11:27;;;;;;;32.90;30.93;;;4.40;99.90;;;;;;5016273;28;20198;-79
2022/01/08 04:13:54;;;;;;;32.43;30.33;;;4.40;99.90;;;;;;5016268;28;20711;-79
2022/01/08 04:16:27;;;;;;;33.83;31.63;;;4.40;99.90;;;;;;5023505;28;20612;-79
2022/01/08 04:18:53;;;;;;;34.30;32.20;;;4.40;99.90;;;;;;5007330;28;20211;-79
2022/01/08 04:24:07;;;;;;;33.17;30.90;;;4.40;99.90;;;;;;5012996;28;20277;-78
2022/01/08 04:26:33;;;;;;;32.80;30.83;;;4.40;99.90;;;;;;5014428;28;20219;-78
2022/01/08 04:28:59;;;;;;;33.13;31.03;;;4.40;99.90;;;;;;5022501;28;20298;-79
2022/01/08 04:31:25;;;;;;;31.13;29.23;;;4.40;99.90;;;;;;5014076;28;20194;-79
2022/01/08 04:33:52;;;;;;;32.30;30.10;;;4.50;99.90;;;;;;5023628;28;20218;-80
2022/01/08 04:36:18;;;;;;;31.37;29.43;;;4.50;99.90;;;;;;5008176;28;20190;-79
2022/01/08 04:38:44;;;;;;;28.57;26.63;;;4.60;99.90;;;;;;5023185;28;20199;-79
2022/01/08 04:41:10;;;;;;;32.47;29.47;;;4.60;99.90;;;;;;4998316;28;20282;-79
2022/01/08 04:43:37;;;;;;;29.37;27.23;;;4.60;99.90;;;;;;4996577;28;20217;-79
2022/01/08 04:46:04;;;;;;;29.67;27.87;;;4.70;99.90;;;;;;5005836;28;20196;-80
2022/01/08 04:48:30;;;;;;;28.00;25.53;;;4.70;99.90;;;;;;5015588;28;20248;-78
2022/01/08 04:50:56;;;;;;;28.30;26.30;;;4.60;99.90;;;;;;5014669;28;20515;-79
2022/01/08 04:53:22;;;;;;;28.57;26.33;;;4.60;99.90;;;;;;5015199;28;20239;-79
2022/01/08 04:55:47;;;;;;;27.30;25.50;;;4.60;99.90;;;;;;4999961;28;20535;-78
2022/01/08 04:58:13;;;;;;;28.20;26.30;;;4.60;99.90;;;;;;5000286;28;20280;-80
2022/01/08 05:00:39;;;;;;;28.10;26.17;;;4.60;99.90;;;;;;4998598;28;20191;-79
2022/01/08 05:03:05;;;;;;;26.70;24.70;;;4.50;99.90;;;;;;5014974;28;20660;-79
2022/01/08 05:05:31;;;;;;;26.80;24.83;;;4.50;99.90;;;;;;5015011;28;20807;-79
2022/01/08 05:07:56;;;;;;;27.63;25.37;;;4.50;99.90;;;;;;5014559;28;20226;-79
2022/01/08 05:10:22;;;;;;;26.77;24.97;;;4.50;99.90;;;;;;4974798;28;20184;-79
2022/01/08 05:12:48;;;;;;;25.67;23.87;;;4.50;99.90;;;;;;5004590;28;20279;-78
2022/01/08 05:15:15;;;;;;;27.40;25.00;;;4.50;99.90;;;;;;5006125;28;20692;-78
2022/01/08 05:17:42;;;;;;;26.23;24.63;;;4.50;99.90;;;;;;4974641;28;20222;-79
2022/01/08 05:20:11;;;;;;;27.23;25.37;;;4.50;99.90;;;;;;5005958;28;20692;-79
2022/01/08 05:25:18;;;;;;;26.93;24.90;;;4.60;99.90;;;;;;5021327;28;20997;-79
2022/01/08 05:27:44;;;;;;;25.87;24.23;;;4.60;99.90;;;;;;5013586;28;20759;-80
2022/01/08 05:30:12;;;;;;;27.63;25.63;;;4.70;99.90;;;;;;5007027;28;20191;-78
2022/01/08 05:32:38;;;;;;;28.97;26.57;;;4.70;99.90;;;;;;5012258;28;20687;-79
2022/01/08 05:35:04;;;;;;;27.47;25.87;;;4.80;99.90;;;;;;5015771;28;20202;-79
2022/01/08 05:37:30;;;;;;;28.30;26.10;;;4.80;99.90;;;;;;5014627;28;20186;-79
2022/01/08 05:39:56;;;;;;;28.30;26.20;;;4.80;99.90;;;;;;4996345;28;20698;-79
2022/01/08 05:42:22;;;;;;;27.00;24.90;;;4.90;99.90;;;;;;5013986;28;20251;-80
2022/01/08 05:44:48;;;;;;;27.10;25.30;;;4.80;99.90;;;;;;5016204;28;20203;-78
2022/01/08 05:47:14;;;;;;;26.37;24.77;;;4.80;99.90;;;;;;5024415;28;20195;-79
2022/01/08 05:49:39;;;;;;;27.37;25.17;;;4.90;99.90;;;;;;5009301;28;20199;-78
2022/01/08 05:52:07;;;;;;;25.87;23.90;;;4.90;99.90;;;;;;5004568;28;20183;-79
2022/01/08 05:54:33;;;;;;;27.50;25.13;;;4.90;99.90;;;;;;4995902;28;20215;-79
2022/01/08 05:56:59;;;;;;;27.97;25.60;;;4.90;99.90;;;;;;5012415;28;20215;-78
2022/01/08 05:59:26;;;;;;;27.20;25.30;;;4.90;99.90;;;;;;5006218;28;20191;-79
2022/01/08 06:01:53;;;;;;;26.23;24.33;;;4.80;99.90;;;;;;5030822;28;21055;-79
2022/01/08 06:04:18;;;;;;;26.23;24.07;;;4.90;99.90;;;;;;5005989;28;20249;-78
2022/01/08 06:06:45;;;;;;;25.50;23.77;;;4.80;99.90;;;;;;5021575;28;20306;-78
2022/01/08 06:09:11;;;;;;;26.27;24.57;;;4.80;99.90;;;;;;4995378;28;20250;-79
2022/01/08 06:11:38;;;;;;;26.80;24.53;;;4.80;99.90;;;;;;5015001;28;20613;-79
2022/01/08 06:14:04;;;;;;;27.47;25.57;;;4.80;99.90;;;;;;5015107;28;20215;-81
2022/01/08 06:16:34;;;;;;;26.43;23.87;;;4.70;99.90;;;;;;5000627;28;20797;-79
2022/01/08 06:19:10;;;;;;;26.97;25.00;;;4.70;99.90;;;;;;5001207;28;20206;-80
2022/01/08 06:21:37;;;;;;;26.90;24.97;;;4.60;99.90;;;;;;5031938;28;20213;-79
2022/01/08 06:24:03;;;;;;;27.87;25.83;;;4.60;99.90;;;;;;5016359;28;20739;-79
2022/01/08 06:26:29;;;;;;;28.10;26.03;;;4.50;99.90;;;;;;5014822;28;20196;-78
2022/01/08 06:28:54;;;;;;;30.47;28.17;;;4.40;99.90;;;;;;5009014;28;20206;-79
2022/01/08 06:31:23;;;;;;;31.60;29.37;;;4.40;99.90;;;;;;5016148;28;20273;-79
2022/01/08 06:33:49;;;;;;;30.33;28.00;;;4.40;99.90;;;;;;5008414;28;20678;-80
2022/01/08 06:36:18;;;;;;;32.30;29.80;;;4.30;99.90;;;;;;5024302;28;20291;-78
2022/01/08 06:38:47;;;;;;;31.03;29.03;;;4.30;99.90;;;;;;5015200;28;20191;-80
2022/01/08 06:41:13;;;;;;;33.63;31.30;;;4.30;99.90;;;;;;5008294;28;20606;-80
2022/01/08 06:43:39;;;;;;;32.23;30.10;;;4.30;99.90;;;;;;5008856;28;20211;-80
2022/01/08 06:46:05;;;;;;;33.27;31.07;;;4.30;99.90;;;;;;5025044;28;20191;-80
2022/01/08 06:48:32;;;;;;;33.80;31.30;;;4.30;99.90;;;;;;4992621;28;20191;-79
2022/01/08 06:50:57;;;;;;;34.03;31.90;;;4.30;99.90;;;;;;5023905;28;20233;-80
2022/01/08 06:53:23;;;;;;;34.43;32.07;;;4.30;99.90;;;;;;5013073;28;20870;-80
2022/01/08 06:55:49;;;;;;;35.30;32.57;;;4.30;99.90;;;;;;5023931;28;20245;-79
2022/01/08 06:58:15;;;;;;;34.57;32.13;;;4.40;99.90;;;;;;5016969;28;20887;-79
2022/01/08 07:00:42;;;;;;;34.93;32.53;;;4.40;99.90;;;;;;5016686;28;20649;-80
2022/01/08 07:03:11;;;;;;;36.93;34.63;;;4.40;99.90;;;;;;4992628;28;20203;-79
2022/01/08 07:05:40;;;;;;;35.80;33.67;;;4.40;99.90;;;;;;5008443;28;20219;-79
2022/01/08 07:08:06;;;;;;;36.17;33.50;;;4.40;99.90;;;;;;5017604;28;20239;-80
2022/01/08 07:10:33;;;;;;;36.40;34.40;;;4.40;99.90;;;;;;5016339;28;20226;-80
2022/01/08 07:12:59;;;;;;;37.20;34.67;;;4.40;99.90;;;;;;5017247;28;20233;-80
2022/01/08 07:15:25;;;;;;;37.27;34.53;;;4.40;99.90;;;;;;5025486;28;20619;-79
2022/01/08 07:17:51;;;;;;;38.10;35.10;;;4.40;99.90;;;;;;5016307;28;20585;-79
2022/01/08 07:20:16;;;;;;;37.57;35.00;;;4.40;99.90;;;;;;4997578;28;20192;-79
2022/01/08 07:22:42;;;;;;;37.63;35.33;;;4.30;99.90;;;;;;5012782;28;20214;-79
2022/01/08 07:25:09;;;;;;;37.37;34.93;;;4.40;99.90;;;;;;5026151;28;20187;-79
2022/01/08 07:27:35;;;;;;;38.23;35.60;;;4.20;99.90;;;;;;5008794;28;20741;-79
2022/01/08 07:30:04;;;;;;;37.50;34.67;;;4.20;99.90;;;;;;5006974;28;20179;-80
2022/01/08 07:32:30;;;;;;;37.53;35.43;;;4.10;99.90;;;;;;5024927;28;20274;-79
2022/01/08 07:34:57;;;;;;;36.70;34.70;;;4.10;99.90;;;;;;5016223;28;20309;-80
2022/01/08 07:37:22;;;;;;;37.53;35.00;;;4.10;99.90;;;;;;5024358;28;20191;-78
2022/01/08 07:39:51;;;;;;;38.50;35.73;;;4.10;99.90;;;;;;4998238;28;20202;-80
2022/01/08 07:42:17;;;;;;;39.33;36.63;;;4.10;99.90;;;;;;5015564;28;20255;-79
2022/01/08 07:44:42;;;;;;;39.03;36.07;;;4.10;99.90;;;;;;5017539;28;20200;-80
2022/01/08 07:47:08;;;;;;;40.30;37.40;;;4.10;99.90;;;;;;5006257;28;20222;-80
2022/01/08 07:49:34;;;;;;;38.70;36.20;;;4.00;99.90;;;;;;5016098;28;20257;-80
2022/01/08 07:52:00;;;;;;;41.20;38.00;;;4.00;99.90;;;;;;5021755;28;20194;-79
2022/01/08 07:54:26;;;;;;;39.13;36.20;;;3.90;99.90;;;;;;5022754;28;20572;-80
2022/01/08 07:56:51;;;;;;;41.70;39.20;;;3.90;99.90;;;;;;5014758;28;20207;-80
2022/01/08 07:59:17;;;;;;;40.70;37.70;;;3.90;99.90;;;;;;5007689;28;20278;-78
2022/01/08 08:01:43;;;;;;;43.57;40.33;;;3.90;99.90;;;;;;5026002;28;20286;-80
2022/01/08 08:04:09;;;;;;;43.87;40.83;;;3.90;99.90;;;;;;5015434;28;20191;-80
2022/01/08 08:06:46;;;;;;;45.13;42.20;;;3.90;99.90;;;;;;4995127;28;20218;-79
2022/01/08 08:09:12;;;;;;;47.73;44.13;;;3.80;99.90;;;;;;5008092;28;20234;-80
2022/01/08 08:11:37;;;;;;;47.33;44.20;;;3.80;99.90;;;;;;5015625;28;20215;-78
2022/01/08 08:14:03;;;;;;;48.50;45.00;;;3.80;99.90;;;;;;5014284;28;20233;-79
2022/01/08 08:16:29;;;;;;;50.27;46.57;;;3.70;99.90;;;;;;5026779;28;20666;-79
2022/01/08 08:18:55;;;;;;;48.67;45.33;;;3.70;99.90;;;;;;5011899;28;20191;-78
2022/01/08 08:21:20;;;;;;;49.37;46.33;;;3.80;99.90;;;;;;4989240;28;20198;-78
2022/01/08 08:23:46;;;;;;;49.07;45.70;;;3.80;99.90;;;;;;5005492;28;20254;-78
2022/01/08 08:26:13;;;;;;;48.97;45.40;;;3.80;99.90;;;;;;5016258;28;20195;-79
2022/01/08 08:28:39;;;;;;;49.60;46.03;;;3.80;99.90;;;;;;5014568;28;20676;-77
2022/01/08 08:31:04;;;;;;;53.10;48.97;;;3.90;99.90;;;;;;4974375;28;20527;-78
2022/01/08 08:33:30;;;;;;;46.07;42.67;;;3.90;99.90;;;;;;5008512;28;20229;-78
2022/01/08 08:35:56;;;;;;;46.20;42.33;;;3.90;99.90;;;;;;5019360;28;20189;-78
2022/01/08 08:38:21;;;;;;;43.77;40.37;;;3.90;99.90;;;;;;5000578;28;20206;-78
2022/01/08 08:40:47;;;;;;;45.43;42.27;;;4.00;99.90;;;;;;5018584;28;20199;-79
2022/01/08 08:43:14;;;;;;;47.03;43.47;;;4.00;99.90;;;;;;4995413;28;20219;-79
2022/01/08 08:45:40;;;;;;;46.73;43.50;;;4.00;99.90;;;;;;5016411;28;20192;-80
2022/01/08 08:48:06;;;;;;;51.83;48.17;;;4.00;99.90;;;;;;5019056;28;20195;-79
2022/01/08 08:50:33;;;;;;;49.47;45.97;;;4.00;99.90;;;;;;5009294;28;20189;-78
2022/01/08 08:52:59;;;;;;;50.70;46.97;;;4.00;99.90;;;;;;5010702;28;20203;-78
2022/01/08 08:55:24;;;;;;;51.00;47.67;;;4.00;99.90;;;;;;5029091;28;20199;-80
2022/01/08 08:57:50;;;;;;;52.67;48.97;;;4.00;99.90;;;;;;5024078;28;20222;-80
2022/01/08 09:00:16;;;;;;;50.70;47.17;;;4.00;99.90;;;;;;4987972;28;20227;-78
2022/01/08 09:02:42;;;;;;;52.87;49.07;;;4.10;99.90;;;;;;4998089;28;20701;-79
2022/01/08 09:05:08;;;;;;;52.37;48.87;;;4.10;99.90;;;;;;5023842;28;20198;-79
2022/01/08 09:07:34;;;;;;;55.20;51.70;;;4.10;99.90;;;;;;5014321;28;20199;-79
2022/01/08 09:10:01;;;;;;;54.83;50.97;;;4.20;99.90;;;;;;5023440;28;20266;-79
2022/01/08 09:12:27;;;;;;;56.07;51.83;;;4.20;99.90;;;;;;5024056;28;20214;-79
2022/01/08 09:14:53;;;;;;;54.37;50.50;;;4.30;99.90;;;;;;5016245;28;20260;-80
2022/01/08 09:17:20;;;;;;;54.20;50.37;;;4.40;99.90;;;;;;5023566;28;20203;-79
2022/01/08 09:19:46;;;;;;;55.47;51.47;;;4.30;99.90;;;;;;4998687;28;20281;-79
2022/01/08 09:22:13;;;;;;;54.60;50.73;;;4.30;99.90;;;;;;5024792;28;20192;-79
2022/01/08 09:24:41;;;;;;;53.67;49.60;;;4.30;99.90;;;;;;4991644;28;20214;-79
2022/01/08 09:27:07;;;;;;;52.33;48.63;;;4.30;99.90;;;;;;5022576;28;20202;-78
2022/01/08 09:29:33;;;;;;;56.87;52.53;;;4.30;99.90;;;;;;4998161;28;20192;-77
2022/01/08 09:31:59;;;;;;;54.23;50.07;;;4.30;99.90;;;;;;5017215;28;20242;-78
2022/01/08 09:34:25;;;;;;;55.80;51.90;;;4.30;99.90;;;;;;5024458;28;20250;-79
2022/01/08 09:36:51;;;;;;;54.30;50.30;;;4.30;99.90;;;;;;5008361;28;20230;-77
2022/01/08 09:39:17;;;;;;;54.93;50.77;;;4.30;99.90;;;;;;4998561;28;20192;-79
2022/01/08 09:41:43;;;;;;;55.07;51.07;;;4.30;99.90;;;;;;5000709;28;20209;-78
2022/01/08 09:44:09;;;;;;;52.50;48.67;;;4.30;99.90;;;;;;5017110;28;20191;-79
2022/01/08 09:46:36;;;;;;;52.17;48.57;;;4.40;99.90;;;;;;5016299;28;20198;-78
2022/01/08 09:49:01;;;;;;;53.43;49.60;;;4.40;99.90;;;;;;5027221;28;20190;-79
2022/01/08 09:51:27;;;;;;;51.80;48.30;;;4.50;99.90;;;;;;5027434;28;20648;-79
2022/01/08 09:53:54;;;;;;;50.23;46.93;;;4.50;99.90;;;;;;5002929;28;20237;-79
2022/01/08 09:56:25;;;;;;;52.67;48.37;;;4.60;99.90;;;;;;5028248;28;20247;-81
2022/01/08 09:58:51;;;;;;;51.80;48.23;;;4.50;99.90;;;;;;5010732;28;20341;-79
2022/01/08 10:01:22;;;;;;;49.77;46.17;;;4.60;99.90;;;;;;4994615;28;20223;-79
2022/01/08 10:03:48;;;;;;;48.77;45.17;;;4.60;99.90;;;;;;5009493;28;20195;-79
2022/01/08 10:06:24;;;;;;;47.70;43.97;;;4.60;99.90;;;;;;5019929;28;20296;-77
2022/01/08 10:08:50;;;;;;;47.17;43.73;;;4.60;99.90;;;;;;5033601;28;20231;-79
2022/01/08 10:11:17;;;;;;;49.00;45.57;;;4.60;99.90;;;;;;5020445;28;20487;-79
2022/01/08 10:13:45;;;;;;;49.27;45.63;;;4.70;99.90;;;;;;5016815;28;20213;-79
2022/01/08 10:19:00;;;;;;;46.57;43.20;;;4.80;99.90;;;;;;5021940;28;20249;-78
2022/01/08 10:21:33;;;;;;;45.60;42.47;;;4.80;99.90;;;;;;5019596;28;20210;-78
2022/01/08 10:24:08;;;;;;;47.03;43.93;;;4.80;99.90;;;;;;5016548;28;20657;-79
2022/01/08 10:26:37;;;;;;;45.47;42.23;;;4.80;99.90;;;;;;5011209;28;20192;-79
2022/01/08 10:29:11;;;;;;;44.13;41.13;;;4.80;99.90;;;;;;5016627;28;20188;-78
2022/01/08 10:31:43;;;;;;;44.83;41.43;;;4.80;99.90;;;;;;5018849;28;20230;-80
2022/01/08 10:34:15;;;;;;;44.00;40.90;;;4.80;99.90;;;;;;5032664;28;20208;-79
2022/01/08 10:36:48;;;;;;;43.63;40.03;;;4.90;99.90;;;;;;5013356;28;20199;-79
2022/01/08 10:39:31;;;;;;;41.77;38.60;;;4.90;99.90;;;;;;5018044;28;20238;-80
2022/01/08 10:41:58;;;;;;;40.77;38.10;;;5.00;99.90;;;;;;5014594;28;20187;-77
2022/01/08 10:44:31;;;;;;;38.20;35.47;;;5.10;99.90;;;;;;4991661;28;20267;-79
2022/01/08 10:47:04;;;;;;;35.67;33.23;;;5.20;99.90;;;;;;5016954;28;20200;-80
2022/01/08 10:49:43;;;;;;;35.10;32.37;;;5.20;99.90;;;;;;5035805;28;20187;-78
2022/01/08 10:52:14;;;;;;;32.73;30.67;;;5.40;99.90;;;;;;5034525;28;20187;-78
2022/01/08 10:54:46;;;;;;;31.23;29.13;;;5.40;99.90;;;;;;5025898;28;20203;-77
2022/01/08 10:57:14;;;;;;;31.20;29.17;;;5.50;99.90;;;;;;5018609;28;20204;-77
2022/01/08 10:59:41;;;;;;;27.70;25.63;;;5.50;99.90;;;;;;5006008;28;20184;-77
2022/01/08 11:02:09;;;;;;;27.73;25.60;;;5.60;99.90;;;;;;5014868;28;20187;-77
2022/01/08 11:04:50;;;;;;;25.50;23.53;;;5.60;99.90;;;;;;5015906;28;20194;-78
2022/01/08 11:07:42;;;;;;;25.07;22.93;;;5.60;99.90;;;;;;5018323;28;20210;-78
2022/01/08 11:10:19;;;;;;;23.33;21.80;;;5.60;99.90;;;;;;5013920;28;20262;-79
2022/01/08 11:12:47;;;;;;;23.97;22.37;;;5.60;99.90;;;;;;5025697;28;20700;-80
2022/01/08 11:17:42;;;;;;;20.87;19.33;;;5.60;99.90;;;;;;5018136;28;20234;-79
2022/01/08 11:20:21;;;;;;;19.50;17.53;;;5.60;99.90;;;;;;5016416;28;20192;-79
2022/01/08 11:22:55;;;;;;;19.20;17.30;;;5.60;99.90;;;;;;5023874;28;20557;-80
2022/01/08 11:25:23;;;;;;;17.87;16.57;;;5.50;99.90;;;;;;5032761;28;20293;-80
2022/01/08 11:28:10;;;;;;;18.07;16.70;;;5.50;99.90;;;;;;5016711;28;20210;-78
2022/01/08 11:30:57;;;;;;;19.93;18.33;;;5.50;99.90;;;;;;5016397;28;20186;-79
2022/01/08 11:33:28;;;;;;;22.37;20.60;;;5.40;99.90;;;;;;5012768;28;20199;-79
2022/01/08 11:35:55;;;;;;;22.17;20.23;;;5.50;99.90;;;;;;5015065;28;20184;-79
2022/01/08 11:38:23;;;;;;;21.30;19.50;;;5.50;99.90;;;;;;5012710;28;20189;-78
2022/01/08 11:40:51;;;;;;;20.83;19.13;;;5.40;99.90;;;;;;5001278;28;20187;-78
2022/01/08 11:43:19;;;;;;;20.33;19.13;;;5.40;99.90;;;;;;5013124;28;20211;-79
2022/01/08 11:46:04;;;;;;;20.10;18.40;;;5.40;99.90;;;;;;5013297;28;20851;-79
2022/01/08 11:48:46;;;;;;;21.40;19.83;;;5.30;99.90;;;;;;5022420;28;20230;-78
2022/01/08 11:51:23;;;;;;;20.83;19.50;;;5.30;99.90;;;;;;5014285;28;20687;-79
2022/01/08 11:53:59;;;;;;;21.73;20.43;;;5.10;99.90;;;;;;5016499;28;20234;-79
2022/01/08 11:56:29;;;;;;;32.53;30.43;;;5.00;99.90;;;;;;5030643;28;20225;-78
2022/01/08 11:59:03;;;;;;;35.50;33.20;;;4.90;99.90;;;;;;5016806;28;20693;-78
2022/01/08 12:01:29;;;;;;;42.17;39.47;;;4.90;99.90;;;;;;5013058;28;20179;-80
2022/01/08 12:03:55;;;;;;;57.83;54.43;;;4.80;99.90;;;;;;5012171;28;20680;-79
2022/01/08 12:06:27;;;;;;;196.40;186.80;;;4.70;99.90;;;;;;4998106;28;20220;-78
2022/01/08 12:09:26;;;;;;;131.83;125.27;;;4.70;99.90;;;;;;5018136;28;20204;-78
2022/01/08 12:12:00;;;;;;;188.40;179.63;;;4.60;99.90;;;;;;5013697;28;20200;-79
2022/01/08 12:14:33;;;;;;;309.47;294.47;;;4.50;99.90;;;;;;5011940;28;20210;-78
2022/01/08 12:17:20;;;;;;;362.27;343.33;;;4.50;99.90;;;;;;5006063;28;20226;-79
2022/01/08 12:19:55;;;;;;;366.90;347.30;;;4.40;99.90;;;;;;5016930;28;20191;-78
2022/01/08 12:22:21;;;;;;;367.43;347.17;;;4.50;99.90;;;;;;5014374;28;20611;-77
2022/01/08 12:24:53;;;;;;;371.87;351.17;;;4.40;99.90;;;;;;5013926;28;20187;-79
2022/01/08 12:27:43;;;;;;;378.80;357.03;;;4.40;99.90;;;;;;5018165;28;20665;-78
2022/01/08 12:30:15;;;;;;;391.10;368.20;;;4.40;99.90;;;;;;5017990;28;20223;-78
2022/01/08 12:32:46;;;;;;;403.93;379.77;;;4.40;99.90;;;;;;5006762;28;20868;-77
2022/01/08 12:35:15;;;;;;;413.53;388.23;;;4.40;99.90;;;;;;5015142;28;20292;-79
2022/01/08 12:37:43;;;;;;;415.20;390.17;;;4.30;99.90;;;;;;5014569;28;20213;-78
2022/01/08 12:40:34;;;;;;;444.42;417.27;;;4.40;99.90;;;;;;5013905;28;20442;-77
2022/01/08 12:43:15;;;;;;;421.50;396.00;;;4.30;99.90;;;;;;5006433;28;20228;-79
2022/01/08 12:45:42;;;;;;;428.07;401.70;;;4.30;99.90;;;;;;5009810;28;20241;-78
2022/01/08 12:48:09;;;;;;;429.40;402.37;;;4.20;99.90;;;;;;5016582;28;20183;-78
2022/01/08 12:50:44;;;;;;;430.80;404.00;;;4.30;99.90;;;;;;5017195;28;20254;-79
2022/01/08 12:53:25;;;;;;;437.80;409.80;;;4.20;99.90;;;;;;5016731;28;20249;-79
2022/01/08 12:55:54;;;;;;;437.93;409.60;;;4.20;99.90;;;;;;5010586;28;20183;-78
2022/01/08 12:58:30;;;;;;;450.60;421.97;;;4.20;99.90;;;;;;5034540;28;20207;-79
2022/01/08 13:01:08;;;;;;;451.67;423.07;;;4.20;99.90;;;;;;5018860;28;20723;-77
2022/01/08 13:03:40;;;;;;;449.27;420.13;;;4.20;99.90;;;;;;5007958;28;20183;-78
2022/01/08 13:06:11;;;;;;;441.60;412.70;;;4.20;99.90;;;;;;5033425;28;20286;-77
2022/01/08 13:08:37;;;;;;;437.03;408.50;;;4.20;99.90;;;;;;5018392;28;20195;-78